createdAt,value
2018-04-20T00:00:28.341Z,19.87
2018-04-20T00:01:28.296Z,19.87
2018-04-20T00:02:28.904Z,19.97
2018-04-20T00:03:28.411Z,19.94
2018-04-20T00:04:28.439Z,19.90
2018-04-20T00:05:28.485Z,19.78
2018-04-20T00:06:30.154Z,19.78
2018-04-20T00:07:28.574Z,19.84
2018-04-20T00:08:28.625Z,19.87
2018-04-20T00:09:28.694Z,19.83
2018-04-20T00:10:28.702Z,19.80
2018-04-20T00:11:28.749Z,19.79
2018-04-20T00:12:28.804Z,19.70
2018-04-20T00:13:28.857Z,19.69
2018-04-20T00:14:28.916Z,19.72
2018-04-20T00:15:28.936Z,19.72
2018-04-20T00:16:28.993Z,19.66
2018-04-20T00:17:29.168Z,19.65
2018-04-20T00:18:29.288Z,19.70
2018-04-20T00:19:29.118Z,19.63
2018-04-20T00:20:29.159Z,19.68
2018-04-20T00:21:29.207Z,19.61
2018-04-20T00:22:29.367Z,19.63
2018-04-20T00:23:29.311Z,19.58
2018-04-20T00:24:29.351Z,19.65
2018-04-20T00:25:29.914Z,19.55
2018-04-20T00:26:29.441Z,19.58
2018-04-20T00:27:29.529Z,19.57
2018-04-20T00:28:29.647Z,19.53
2018-04-20T00:29:29.612Z,19.57
2018-04-20T00:30:29.630Z,19.55
2018-04-20T00:31:29.907Z,19.60
2018-04-20T00:32:29.713Z,19.51
2018-04-20T00:33:29.762Z,19.51
2018-04-20T00:34:31.317Z,19.55
2018-04-20T00:35:29.960Z,19.46
2018-04-20T00:36:29.897Z,19.43
2018-04-20T00:37:29.941Z,19.43
2018-04-20T00:38:29.992Z,19.43
2018-04-20T00:39:30.046Z,19.43
2018-04-20T00:40:30.095Z,19.42
2018-04-20T00:41:30.251Z,19.42
2018-04-20T00:44:30.265Z,19.40
2018-04-20T00:45:30.305Z,19.46
2018-04-20T00:46:31.010Z,19.43
2018-04-20T00:47:30.413Z,19.36
2018-04-20T00:48:30.449Z,19.36
2018-04-20T00:49:30.499Z,19.42
2018-04-20T00:50:30.550Z,19.40
2018-04-20T00:51:30.592Z,19.42
2018-04-20T00:52:30.725Z,19.39
2018-04-20T00:53:30.885Z,19.42
2018-04-20T00:54:30.732Z,19.38
2018-04-20T00:55:30.980Z,19.42
2018-04-20T00:56:31.007Z,19.31
2018-04-20T00:57:30.862Z,19.42
2018-04-20T00:58:31.002Z,19.31
2018-04-20T00:59:31.052Z,19.28
2018-04-20T01:00:31.017Z,19.33
2018-04-20T01:01:31.035Z,19.32
2018-04-20T01:03:31.115Z,19.33
2018-04-20T01:04:31.387Z,19.32
2018-04-20T01:05:31.350Z,19.36
2018-04-20T01:07:31.332Z,19.39
2018-04-20T01:08:31.346Z,19.28
2018-04-20T01:09:31.413Z,19.31
2018-04-20T01:11:31.687Z,19.23
2018-04-20T01:12:31.550Z,19.23
2018-04-20T01:13:31.586Z,19.21
2018-04-20T01:14:31.647Z,19.18
2018-04-20T01:15:31.682Z,19.23
2018-04-20T01:16:32.283Z,19.18
2018-04-20T01:17:32.431Z,19.17
2018-04-20T01:18:31.827Z,19.20
2018-04-20T01:19:32.410Z,19.17
2018-04-20T01:20:32.106Z,19.20
2018-04-20T01:21:31.961Z,19.18
2018-04-20T01:22:32.204Z,19.14
2018-04-20T01:23:32.043Z,19.02
2018-04-20T01:24:32.303Z,19.11
2018-04-20T01:25:32.126Z,19.08
2018-04-20T01:26:32.184Z,18.95
2018-04-20T01:27:32.332Z,18.95
2018-04-20T01:28:32.475Z,18.97
2018-04-20T01:29:32.331Z,18.95
2018-04-20T01:30:32.351Z,18.92
2018-04-20T01:31:32.405Z,18.90
2018-04-20T01:32:32.458Z,18.91
2018-04-20T01:33:34.117Z,18.84
2018-04-20T01:34:34.048Z,18.84
2018-04-20T01:35:32.602Z,18.79
2018-04-20T01:36:32.637Z,18.84
2018-04-20T01:37:32.673Z,18.80
2018-04-20T01:38:33.336Z,18.83
2018-04-20T01:39:32.974Z,18.82
2018-04-20T01:40:32.924Z,18.82
2018-04-20T01:41:32.838Z,18.84
2018-04-20T01:42:32.893Z,18.87
2018-04-20T01:43:32.960Z,18.84
2018-04-20T01:44:33.004Z,18.77
2018-04-20T01:45:33.138Z,18.87
2018-04-20T01:46:33.082Z,18.77
2018-04-20T01:47:33.120Z,18.77
2018-04-20T01:48:33.154Z,18.80
2018-04-20T01:49:34.369Z,18.77
2018-04-20T01:50:33.448Z,18.68
2018-04-20T01:51:33.416Z,18.77
2018-04-20T01:52:33.361Z,18.74
2018-04-20T01:53:33.384Z,18.70
2018-04-20T01:54:33.438Z,18.65
2018-04-20T01:55:33.483Z,18.67
2018-04-20T01:56:33.624Z,18.67
2018-04-20T01:57:33.593Z,18.70
2018-04-20T01:58:33.618Z,18.70
2018-04-20T01:59:33.673Z,18.70
2018-04-20T02:00:33.710Z,18.68
2018-04-20T02:01:33.754Z,18.73
2018-04-20T02:02:34.023Z,18.79
2018-04-20T02:03:33.846Z,18.70
2018-04-20T02:04:33.899Z,18.74
2018-04-20T02:05:33.916Z,18.77
2018-04-20T02:06:34.004Z,18.79
2018-04-20T02:07:34.128Z,18.68
2018-04-20T02:08:34.073Z,18.59
2018-04-20T02:09:34.120Z,18.61
2018-04-20T02:10:34.156Z,18.62
2018-04-20T02:11:34.217Z,18.57
2018-04-20T02:13:34.325Z,18.47
2018-04-20T02:14:34.337Z,18.40
2018-04-20T02:15:34.408Z,18.39
2018-04-20T02:16:34.452Z,18.42
2018-04-20T02:17:34.569Z,18.34
2018-04-20T02:18:34.531Z,18.37
2018-04-20T02:19:34.555Z,18.29
2018-04-20T02:20:34.632Z,18.29
2018-04-20T02:21:34.653Z,18.31
2018-04-20T02:22:34.798Z,18.29
2018-04-20T02:23:36.339Z,18.29
2018-04-20T02:24:34.798Z,18.19
2018-04-20T02:25:34.833Z,18.34
2018-04-20T02:26:34.886Z,18.25
2018-04-20T02:27:34.918Z,18.34
2018-04-20T02:28:35.002Z,18.27
2018-04-20T02:29:35.115Z,18.21
2018-04-20T02:30:35.076Z,18.24
2018-04-20T02:31:35.655Z,18.21
2018-04-20T02:32:35.337Z,18.28
2018-04-20T02:33:35.204Z,18.25
2018-04-20T02:34:35.369Z,18.19
2018-04-20T02:35:35.312Z,18.22
2018-04-20T02:37:35.577Z,18.19
2018-04-20T02:38:35.409Z,18.22
2018-04-20T02:39:37.109Z,18.21
2018-04-20T02:40:35.541Z,18.22
2018-04-20T02:41:35.562Z,18.17
2018-04-20T02:42:35.582Z,18.22
2018-04-20T02:43:35.628Z,18.15
2018-04-20T02:44:35.673Z,18.13
2018-04-20T02:45:35.832Z,18.09
2018-04-20T02:46:35.773Z,18.12
2018-04-20T02:47:35.823Z,18.13
2018-04-20T02:48:35.879Z,18.06
2018-04-20T02:49:35.912Z,18.00
2018-04-20T02:50:37.716Z,17.95
2018-04-20T02:51:36.036Z,17.95
2018-04-20T02:52:36.597Z,17.97
2018-04-20T02:53:36.098Z,17.89
2018-04-20T02:54:36.145Z,17.94
2018-04-20T02:55:36.207Z,17.89
2018-04-20T02:56:36.332Z,17.91
2018-04-20T02:57:36.263Z,17.91
2018-04-20T02:58:36.320Z,17.89
2018-04-20T02:59:36.385Z,17.94
2018-04-20T03:00:36.388Z,17.87
2018-04-20T03:01:36.567Z,17.78
2018-04-20T03:02:36.488Z,17.85
2018-04-20T03:03:36.543Z,17.78
2018-04-20T03:04:36.602Z,17.79
2018-04-20T03:05:36.611Z,17.78
2018-04-20T03:06:36.874Z,17.82
2018-04-20T03:07:36.744Z,17.82
2018-04-20T03:08:36.749Z,17.85
2018-04-20T03:09:36.841Z,17.79
2018-04-20T03:10:36.936Z,17.84
2018-04-20T03:11:37.010Z,17.76
2018-04-20T03:12:37.080Z,17.84
2018-04-20T03:13:37.002Z,17.79
2018-04-20T03:14:37.062Z,17.84
2018-04-20T03:15:37.056Z,17.95
2018-04-20T03:16:37.119Z,17.92
2018-04-20T03:17:37.350Z,17.91
2018-04-20T03:18:37.303Z,17.97
2018-04-20T03:19:37.260Z,17.92
2018-04-20T03:20:37.304Z,17.94
2018-04-20T03:21:37.371Z,17.81
2018-04-20T03:22:37.405Z,17.81
2018-04-20T03:23:37.536Z,17.78
2018-04-20T03:24:37.675Z,17.71
2018-04-20T03:25:37.500Z,17.71
2018-04-20T03:26:38.071Z,17.62
2018-04-20T03:27:37.590Z,17.67
2018-04-20T03:28:37.660Z,17.54
2018-04-20T03:29:37.776Z,17.54
2018-04-20T03:30:38.064Z,17.51
2018-04-20T03:31:37.786Z,17.44
2018-04-20T03:32:37.826Z,17.62
2018-04-20T03:33:37.867Z,17.48
2018-04-20T03:34:37.914Z,17.44
2018-04-20T03:35:38.171Z,17.53
2018-04-20T03:36:38.302Z,17.50
2018-04-20T03:37:38.047Z,17.47
2018-04-20T03:38:38.092Z,17.48
2018-04-20T03:39:38.161Z,17.43
2018-04-20T03:40:38.187Z,17.35
2018-04-20T03:41:38.341Z,17.43
2018-04-20T03:42:38.267Z,17.36
2018-04-20T03:43:38.336Z,17.29
2018-04-20T03:44:38.363Z,17.29
2018-04-20T03:45:38.395Z,17.23
2018-04-20T03:46:38.663Z,17.32
2018-04-20T03:47:38.590Z,17.40
2018-04-20T03:48:38.560Z,17.29
2018-04-20T03:49:38.589Z,17.43
2018-04-20T03:50:38.625Z,17.44
2018-04-20T03:51:38.666Z,17.48
2018-04-20T03:52:38.823Z,17.54
2018-04-20T03:53:39.020Z,17.66
2018-04-20T03:54:38.824Z,17.69
2018-04-20T03:55:39.393Z,17.67
2018-04-20T03:56:39.428Z,17.67
2018-04-20T03:57:38.921Z,17.66
2018-04-20T03:58:39.090Z,17.67
2018-04-20T03:59:39.035Z,17.73
2018-04-20T04:00:39.061Z,17.70
2018-04-20T04:01:39.094Z,17.76
2018-04-20T04:02:39.179Z,17.82
2018-04-20T04:03:39.303Z,17.91
2018-04-20T04:04:39.496Z,17.89
2018-04-20T04:05:39.316Z,17.95
2018-04-20T04:06:39.358Z,17.95
2018-04-20T04:07:39.384Z,17.92
2018-04-20T04:08:39.404Z,17.99
2018-04-20T04:09:39.573Z,18.03
2018-04-20T04:10:39.616Z,18.00
2018-04-20T04:11:40.108Z,17.97
2018-04-20T04:12:39.603Z,18.03
2018-04-20T04:13:39.658Z,18.02
2018-04-20T04:14:39.717Z,18.03
2018-04-20T04:15:39.941Z,18.03
2018-04-20T04:16:39.765Z,18.00
2018-04-20T04:17:39.821Z,17.97
2018-04-20T04:18:39.878Z,17.97
2018-04-20T04:19:39.911Z,17.99
2018-04-20T04:20:40.041Z,17.94
2018-04-20T04:21:39.986Z,17.99
2018-04-20T04:22:40.597Z,17.95
2018-04-20T04:23:40.083Z,17.84
2018-04-20T04:24:40.122Z,17.73
2018-04-20T04:25:40.247Z,17.78
2018-04-20T04:26:40.428Z,17.64
2018-04-20T04:27:40.450Z,17.64
2018-04-20T04:28:40.315Z,17.66
2018-04-20T04:29:40.346Z,17.67
2018-04-20T04:30:40.398Z,17.57
2018-04-20T04:31:41.068Z,17.64
2018-04-20T04:32:40.590Z,17.74
2018-04-20T04:33:40.534Z,17.70
2018-04-20T04:34:40.567Z,17.79
2018-04-20T04:35:40.593Z,17.82
2018-04-20T04:36:40.649Z,17.82
2018-04-20T04:37:41.458Z,17.74
2018-04-20T04:38:40.727Z,17.74
2018-04-20T04:39:40.768Z,17.71
2018-04-20T04:40:40.825Z,17.71
2018-04-20T04:41:40.880Z,17.67
2018-04-20T04:42:41.012Z,17.63
2018-04-20T04:43:40.937Z,17.54
2018-04-20T04:44:40.991Z,17.48
2018-04-20T04:45:41.036Z,17.46
2018-04-20T04:46:41.079Z,17.43
2018-04-20T04:47:41.239Z,17.51
2018-04-20T04:48:41.691Z,17.46
2018-04-20T04:49:41.242Z,17.43
2018-04-20T04:50:41.267Z,17.41
2018-04-20T04:51:41.293Z,17.29
2018-04-20T04:52:41.571Z,17.41
2018-04-20T04:53:41.381Z,17.33
2018-04-20T04:55:41.670Z,17.33
2018-04-20T04:56:41.534Z,17.26
2018-04-20T04:57:41.697Z,17.22
2018-04-20T04:58:41.614Z,17.15
2018-04-20T04:59:41.664Z,17.13
2018-04-20T05:00:41.711Z,17.11
2018-04-20T05:01:41.765Z,17.06
2018-04-20T05:02:41.896Z,17.00
2018-04-20T05:03:41.838Z,16.98
2018-04-20T05:04:41.899Z,16.90
2018-04-20T05:05:41.905Z,16.90
2018-04-20T05:06:41.980Z,16.92
2018-04-20T05:07:42.235Z,16.92
2018-04-20T05:08:42.059Z,16.99
2018-04-20T05:09:42.140Z,16.92
2018-04-20T05:10:42.151Z,16.86
2018-04-20T05:11:42.183Z,16.92
2018-04-20T05:12:42.863Z,16.99
2018-04-20T05:13:42.382Z,16.93
2018-04-20T05:14:42.341Z,16.83
2018-04-20T05:15:42.373Z,16.86
2018-04-20T05:16:42.408Z,16.77
2018-04-20T05:17:42.460Z,16.78
2018-04-20T05:18:42.705Z,16.80
2018-04-20T05:20:42.593Z,16.71
2018-04-20T05:21:42.667Z,16.77
2018-04-20T05:22:42.681Z,16.75
2018-04-20T05:23:43.011Z,16.75
2018-04-20T05:24:42.866Z,16.73
2018-04-20T05:25:42.794Z,16.67
2018-04-20T05:26:42.876Z,16.71
2018-04-20T05:27:42.889Z,16.70
2018-04-20T05:28:42.957Z,16.70
2018-04-20T05:29:43.233Z,16.62
2018-04-20T05:30:43.046Z,16.63
2018-04-20T05:31:43.064Z,16.58
2018-04-20T05:32:43.137Z,16.56
2018-04-20T05:33:43.147Z,16.56
2018-04-20T05:34:43.299Z,16.58
2018-04-20T05:35:43.365Z,16.60
2018-04-20T05:37:43.360Z,16.67
2018-04-20T05:38:43.357Z,16.74
2018-04-20T05:39:43.447Z,16.83
2018-04-20T05:40:43.660Z,16.83
2018-04-20T05:41:43.614Z,16.98
2018-04-20T05:42:43.565Z,16.92
2018-04-20T05:43:43.594Z,16.95
2018-04-20T05:44:43.622Z,16.95
2018-04-20T05:45:43.721Z,16.93
2018-04-20T05:46:43.856Z,16.85
2018-04-20T05:47:44.039Z,16.88
2018-04-20T05:48:43.814Z,16.88
2018-04-20T05:49:43.845Z,16.77
2018-04-20T05:50:43.897Z,16.81
2018-04-20T05:51:43.964Z,16.75
2018-04-20T05:52:44.070Z,16.74
2018-04-20T05:53:44.151Z,16.81
2018-04-20T05:54:44.087Z,16.89
2018-04-20T05:55:44.628Z,16.83
2018-04-20T05:56:44.172Z,16.71
2018-04-20T05:57:44.206Z,16.74
2018-04-20T05:58:44.455Z,16.73
2018-04-20T05:59:44.399Z,16.70
2018-04-20T06:01:44.375Z,16.67
2018-04-20T06:02:44.461Z,16.52
2018-04-20T06:03:44.476Z,16.56
2018-04-20T06:04:44.610Z,16.50
2018-04-20T06:06:44.596Z,16.55
2018-04-20T06:07:44.654Z,16.52
2018-04-20T06:08:44.715Z,16.42
2018-04-20T06:09:44.928Z,16.44
2018-04-20T06:10:44.781Z,16.38
2018-04-20T06:11:44.828Z,16.31
2018-04-20T06:12:44.860Z,16.37
2018-04-20T06:13:44.926Z,16.33
2018-04-20T06:14:45.057Z,16.40
2018-04-20T06:15:45.022Z,16.35
2018-04-20T06:16:45.047Z,16.34
2018-04-20T06:17:45.124Z,16.23
2018-04-20T06:18:45.118Z,16.33
2018-04-20T06:19:45.383Z,16.31
2018-04-20T06:20:45.245Z,16.31
2018-04-20T06:21:45.251Z,16.20
2018-04-20T06:22:45.302Z,16.26
2018-04-20T06:23:45.352Z,16.27
2018-04-20T06:24:45.584Z,16.22
2018-04-20T06:25:45.561Z,16.27
2018-04-20T06:26:45.471Z,16.20
2018-04-20T06:27:45.573Z,16.15
2018-04-20T06:28:46.191Z,16.15
2018-04-20T06:29:45.656Z,16.16
2018-04-20T06:30:45.843Z,16.14
2018-04-20T06:31:46.036Z,16.18
2018-04-20T06:32:45.793Z,16.16
2018-04-20T06:33:45.770Z,16.11
2018-04-20T06:34:45.821Z,16.15
2018-04-20T06:35:45.893Z,16.15
2018-04-20T06:36:46.555Z,16.20
2018-04-20T06:37:46.035Z,16.25
2018-04-20T06:38:45.976Z,16.25
2018-04-20T06:39:46.051Z,16.31
2018-04-20T06:40:46.108Z,16.31
2018-04-20T06:41:46.131Z,16.30
2018-04-20T06:42:46.363Z,16.16
2018-04-20T06:43:46.198Z,16.14
2018-04-20T06:44:46.268Z,16.18
2018-04-20T06:45:46.310Z,16.25
2018-04-20T06:46:46.368Z,16.25
2018-04-20T06:47:46.500Z,16.22
2018-04-20T06:48:46.719Z,16.25
2018-04-20T06:49:46.468Z,16.27
2018-04-20T06:50:46.728Z,16.30
2018-04-20T06:51:46.547Z,16.27
2018-04-20T06:52:46.612Z,16.18
2018-04-20T06:53:47.067Z,16.23
2018-04-20T06:54:46.702Z,16.30
2018-04-20T06:56:46.823Z,16.30
2018-04-20T06:57:46.812Z,16.22
2018-04-20T06:58:46.975Z,16.16
2018-04-20T06:59:46.904Z,16.14
2018-04-20T07:00:46.949Z,16.14
2018-04-20T07:01:47.019Z,16.11
2018-04-20T07:02:47.047Z,16.12
2018-04-20T07:03:47.186Z,16.14
2018-04-20T07:04:47.148Z,16.14
2018-04-20T07:05:47.154Z,16.15
2018-04-20T07:06:47.216Z,16.22
2018-04-20T07:07:47.267Z,16.14
2018-04-20T07:08:47.493Z,16.09
2018-04-20T07:09:47.435Z,16.09
2018-04-20T07:10:47.389Z,16.01
2018-04-20T07:11:47.415Z,16.01
2018-04-20T07:12:47.500Z,15.96
2018-04-20T07:13:47.524Z,16.07
2018-04-20T07:14:47.673Z,16.03
2018-04-20T07:15:47.824Z,16.01
2018-04-20T07:16:47.639Z,15.96
2018-04-20T07:17:48.228Z,16.03
2018-04-20T07:18:47.740Z,16.01
2018-04-20T07:19:47.809Z,16.09
2018-04-20T07:20:48.010Z,16.00
2018-04-20T07:21:47.963Z,15.96
2018-04-20T07:22:47.913Z,15.99
2018-04-20T07:23:47.962Z,15.96
2018-04-20T07:24:48.017Z,15.99
2018-04-20T07:25:48.039Z,15.97
2018-04-20T07:26:48.276Z,15.93
2018-04-20T07:27:48.230Z,15.96
2018-04-20T07:28:48.376Z,16.01
2018-04-20T07:29:48.231Z,15.96
2018-04-20T07:30:48.256Z,15.89
2018-04-20T07:31:48.305Z,15.82
2018-04-20T07:32:48.453Z,15.84
2018-04-20T07:33:48.663Z,15.92
2018-04-20T07:34:48.952Z,15.82
2018-04-20T07:35:48.468Z,15.81
2018-04-20T07:36:48.545Z,15.78
2018-04-20T07:37:48.554Z,15.78
2018-04-20T07:38:48.623Z,15.76
2018-04-20T07:39:48.745Z,15.74
2018-04-20T07:40:48.773Z,15.72
2018-04-20T07:42:48.784Z,15.67
2018-04-20T07:43:48.816Z,15.70
2018-04-20T07:44:48.883Z,15.68
2018-04-20T07:45:49.120Z,15.72
2018-04-20T07:46:49.060Z,15.67
2018-04-20T07:47:49.012Z,15.64
2018-04-20T07:48:49.047Z,15.66
2018-04-20T07:49:49.080Z,15.63
2018-04-20T07:50:49.146Z,15.66
2018-04-20T07:51:49.266Z,15.63
2018-04-20T07:52:49.416Z,15.79
2018-04-20T07:53:49.247Z,15.66
2018-04-20T07:54:49.283Z,15.60
2018-04-20T07:55:49.320Z,15.66
2018-04-20T07:56:49.357Z,15.64
2018-04-20T07:57:49.523Z,15.63
2018-04-20T07:58:49.473Z,15.61
2018-04-20T07:59:49.537Z,15.61
2018-04-20T08:00:49.543Z,15.64
2018-04-20T08:01:49.615Z,15.63
2018-04-20T08:02:49.847Z,15.60
2018-04-20T08:03:49.750Z,15.49
2018-04-20T08:04:49.774Z,15.57
2018-04-20T08:05:49.824Z,15.52
2018-04-20T08:06:49.858Z,15.49
2018-04-20T08:07:50.181Z,15.51
2018-04-20T08:08:50.156Z,15.49
2018-04-20T08:09:50.014Z,15.54
2018-04-20T08:10:49.965Z,15.52
2018-04-20T08:11:50.076Z,15.52
2018-04-20T08:13:50.339Z,15.41
2018-04-20T08:14:50.525Z,15.46
2018-04-20T08:15:50.232Z,15.42
2018-04-20T08:16:50.310Z,15.49
2018-04-20T08:17:50.265Z,15.42
2018-04-20T08:18:50.346Z,15.38
2018-04-20T08:19:51.019Z,15.41
2018-04-20T08:20:50.508Z,15.46
2018-04-20T08:21:50.486Z,15.39
2018-04-20T08:22:50.495Z,15.36
2018-04-20T08:23:50.576Z,15.48
2018-04-20T08:24:50.577Z,15.39
2018-04-20T08:25:50.836Z,15.42
2018-04-20T08:26:50.767Z,15.45
2018-04-20T08:27:50.733Z,15.41
2018-04-20T08:28:50.778Z,15.46
2018-04-20T08:29:50.834Z,15.46
2018-04-20T08:30:50.870Z,15.43
2018-04-20T08:31:50.980Z,15.39
2018-04-20T08:32:51.144Z,15.35
2018-04-20T08:33:50.974Z,15.39
2018-04-20T08:34:51.033Z,15.46
2018-04-20T08:35:51.060Z,15.46
2018-04-20T08:36:51.083Z,15.42
2018-04-20T08:37:51.247Z,15.35
2018-04-20T08:38:51.182Z,15.35
2018-04-20T08:39:51.237Z,15.31
2018-04-20T08:40:51.288Z,15.31
2018-04-20T08:41:51.332Z,15.39
2018-04-20T08:42:51.488Z,15.36
2018-04-20T08:43:51.591Z,15.27
2018-04-20T08:44:51.464Z,15.24
2018-04-20T08:45:51.476Z,15.30
2018-04-20T08:46:51.526Z,15.26
2018-04-20T08:47:51.593Z,15.26
2018-04-20T08:48:51.924Z,15.27
2018-04-20T08:49:51.770Z,15.26
2018-04-20T08:50:51.721Z,15.24
2018-04-20T08:51:51.744Z,15.27
2018-04-20T08:52:51.815Z,15.41
2018-04-20T08:53:51.849Z,15.36
2018-04-20T08:54:52.155Z,15.28
2018-04-20T08:55:52.025Z,15.28
2018-04-20T08:56:51.967Z,15.30
2018-04-20T08:57:52.020Z,15.24
2018-04-20T08:58:52.045Z,15.21
2018-04-20T08:59:52.103Z,15.24
2018-04-20T09:00:52.258Z,15.24
2018-04-20T09:01:52.398Z,15.15
2018-04-20T09:02:52.224Z,15.23
2018-04-20T09:03:52.248Z,15.23
2018-04-20T09:04:52.282Z,15.20
2018-04-20T09:05:52.363Z,15.12
2018-04-20T09:06:52.507Z,15.11
2018-04-20T09:07:52.538Z,15.17
2018-04-20T09:08:52.470Z,15.15
2018-04-20T09:10:52.553Z,15.15
2018-04-20T09:11:52.607Z,15.19
2018-04-20T09:12:52.858Z,15.17
2018-04-20T09:13:52.721Z,15.12
2018-04-20T09:14:52.760Z,15.21
2018-04-20T09:15:52.782Z,15.26
2018-04-20T09:16:53.381Z,15.15
2018-04-20T09:17:52.873Z,15.19
2018-04-20T09:18:53.007Z,15.12
2018-04-20T09:19:52.960Z,15.15
2018-04-20T09:20:52.995Z,15.19
2018-04-20T09:21:53.010Z,15.20
2018-04-20T09:22:53.087Z,15.13
2018-04-20T09:23:53.218Z,15.21
2018-04-20T09:24:53.358Z,15.24
2018-04-20T09:25:53.207Z,15.26
2018-04-20T09:26:53.236Z,15.21
2018-04-20T09:27:53.303Z,15.30
2018-04-20T09:28:53.328Z,15.24
2018-04-20T09:30:53.401Z,15.15
2018-04-20T09:31:53.472Z,15.33
2018-04-20T09:32:53.501Z,15.28
2018-04-20T09:33:53.529Z,15.27
2018-04-20T09:34:53.715Z,15.21
2018-04-20T09:35:53.824Z,15.28
2018-04-20T09:36:53.668Z,15.28
2018-04-20T09:37:53.730Z,15.21
2018-04-20T09:38:53.779Z,15.26
2018-04-20T09:39:53.791Z,15.30
2018-04-20T09:40:53.923Z,15.24
2018-04-20T09:41:54.002Z,15.27
2018-04-20T09:42:53.949Z,15.24
2018-04-20T09:43:53.964Z,15.39
2018-04-20T09:44:54.009Z,15.35
2018-04-20T09:45:54.061Z,15.30
2018-04-20T09:46:54.304Z,15.38
2018-04-20T09:47:54.226Z,15.39
2018-04-20T09:48:54.168Z,15.39
2018-04-20T09:49:54.263Z,15.45
2018-04-20T09:50:54.265Z,15.45
2018-04-20T09:51:54.462Z,15.48
2018-04-20T09:52:54.465Z,15.48
2018-04-20T09:53:54.589Z,15.56
2018-04-20T09:54:54.425Z,15.51
2018-04-20T09:55:54.476Z,15.52
2018-04-20T09:56:54.518Z,15.59
2018-04-20T09:57:54.591Z,15.66
2018-04-20T09:58:54.722Z,15.68
2018-04-20T09:59:54.861Z,15.64
2018-04-20T10:00:54.687Z,15.67
2018-04-20T10:01:54.726Z,15.79
2018-04-20T10:02:54.792Z,15.64
2018-04-20T10:03:54.825Z,15.75
2018-04-20T10:04:54.968Z,15.76
2018-04-20T10:05:54.906Z,15.79
2018-04-20T10:06:54.981Z,15.76
2018-04-20T10:07:55.001Z,15.85
2018-04-20T10:08:55.075Z,15.82
2018-04-20T10:09:55.201Z,15.93
2018-04-20T10:10:55.343Z,15.96
2018-04-20T10:11:55.161Z,16.06
2018-04-20T10:12:55.271Z,16.18
2018-04-20T10:13:55.246Z,16.38
2018-04-20T10:14:55.287Z,16.40
2018-04-20T10:15:55.476Z,16.56
2018-04-20T10:16:55.390Z,16.83
2018-04-20T10:17:56.015Z,17.30
2018-04-20T10:18:55.466Z,17.94
2018-04-20T10:19:55.543Z,18.58
2018-04-20T10:20:55.690Z,19.05
2018-04-20T10:21:55.622Z,19.54
2018-04-20T10:22:56.268Z,19.93
2018-04-20T10:23:55.711Z,20.43
2018-04-20T10:24:55.763Z,20.93
2018-04-20T10:25:56.010Z,21.26
2018-04-20T10:26:55.835Z,21.27
2018-04-20T10:27:55.913Z,21.27
2018-04-20T10:28:55.936Z,21.39
2018-04-20T10:29:55.966Z,21.48
2018-04-20T10:30:56.143Z,21.57
2018-04-20T10:31:56.193Z,21.57
2018-04-20T10:32:56.112Z,21.92
2018-04-20T10:33:56.183Z,22.29
2018-04-20T10:34:56.214Z,22.56
2018-04-20T10:35:56.289Z,22.67
2018-04-20T10:36:56.517Z,22.74
2018-04-20T10:37:56.470Z,22.74
2018-04-20T10:38:56.407Z,22.97
2018-04-20T10:39:56.486Z,23.02
2018-04-20T10:40:56.508Z,22.67
2018-04-20T10:41:56.560Z,22.57
2018-04-20T10:42:56.706Z,22.49
2018-04-20T10:43:57.435Z,22.49
2018-04-20T10:44:56.748Z,22.78
2018-04-20T10:45:56.763Z,23.02
2018-04-20T10:46:56.836Z,23.34
2018-04-20T10:47:56.850Z,23.97
2018-04-20T10:48:56.992Z,24.13
2018-04-20T10:50:57.017Z,24.14
2018-04-20T10:51:57.066Z,24.47
2018-04-20T10:52:57.127Z,24.42
2018-04-20T10:53:57.254Z,24.29
2018-04-20T10:55:57.270Z,24.14
2018-04-20T10:56:57.303Z,24.29
2018-04-20T10:57:57.385Z,24.12
2018-04-20T10:58:57.622Z,24.01
2018-04-20T10:59:57.558Z,24.38
2018-04-20T11:01:58.125Z,24.80
2018-04-20T11:02:57.597Z,24.69
2018-04-20T11:04:57.817Z,25.30
2018-04-20T11:05:57.780Z,25.54
2018-04-20T11:06:57.823Z,25.91
2018-04-20T11:07:57.907Z,25.94
2018-04-20T11:08:57.920Z,26.22
2018-04-20T11:09:58.740Z,26.18
2018-04-20T11:10:58.032Z,25.89
2018-04-20T11:11:58.081Z,26.04
2018-04-20T11:12:58.116Z,26.25
2018-04-20T11:13:58.187Z,26.50
2018-04-20T11:14:58.329Z,26.81
2018-04-20T11:15:58.385Z,26.83
2018-04-20T11:16:58.349Z,26.89
2018-04-20T11:17:58.404Z,26.65
2018-04-20T11:19:58.520Z,27.10
2018-04-20T11:20:58.653Z,26.91
2018-04-20T11:21:58.617Z,26.92
2018-04-20T11:22:58.645Z,27.24
2018-04-20T11:23:58.727Z,27.28
2018-04-20T11:24:58.760Z,27.09
2018-04-20T11:25:58.925Z,27.21
2018-04-20T11:26:58.877Z,27.28
2018-04-20T11:27:58.924Z,27.35
2018-04-20T11:28:59.505Z,27.38
2018-04-20T11:29:59.102Z,27.48
2018-04-20T11:30:59.314Z,27.35
2018-04-20T11:31:59.238Z,27.38
2018-04-20T11:32:59.216Z,27.38
2018-04-20T11:33:59.268Z,27.38
2018-04-20T11:34:59.303Z,27.48
2018-04-20T11:35:59.357Z,27.50
2018-04-20T11:36:59.502Z,27.82
2018-04-20T11:37:59.868Z,28.22
2018-04-20T11:38:59.527Z,27.98
2018-04-20T11:39:59.568Z,27.99
2018-04-20T11:40:59.815Z,28.10
2018-04-20T11:41:59.665Z,28.38
2018-04-20T11:42:59.857Z,28.48
2018-04-20T11:44:59.839Z,28.77
2018-04-20T11:45:59.883Z,28.78
2018-04-20T11:46:59.947Z,28.73
2018-04-20T11:48:00.108Z,28.97
2018-04-20T11:49:00.054Z,29.16
2018-04-20T11:50:00.144Z,29.34
2018-04-20T11:51:00.170Z,29.35
2018-04-20T11:52:00.433Z,29.25
2018-04-20T11:53:00.387Z,29.28
2018-04-20T11:54:00.362Z,29.25
2018-04-20T11:55:00.389Z,29.65
2018-04-20T11:56:00.458Z,29.79
2018-04-20T11:57:00.489Z,29.94
2018-04-20T11:58:00.761Z,30.24
2018-04-20T11:59:00.600Z,30.45
2018-04-20T12:00:00.662Z,30.57
2018-04-20T12:01:00.735Z,30.45
2018-04-20T12:02:00.768Z,30.45
2018-04-20T12:03:00.935Z,30.18
2018-04-20T12:04:00.916Z,30.12
2018-04-20T12:05:00.948Z,29.96
2018-04-20T12:06:01.013Z,29.84
2018-04-20T12:08:01.304Z,29.62
2018-04-20T12:09:01.270Z,29.57
2018-04-20T12:10:01.224Z,29.75
2018-04-20T12:11:01.297Z,29.72
2018-04-20T12:12:01.872Z,29.89
2018-04-20T12:13:01.403Z,29.28
2018-04-20T12:14:01.555Z,28.96
2018-04-20T12:15:01.750Z,29.47
2018-04-20T12:16:01.555Z,29.89
2018-04-20T12:17:01.623Z,30.65
2018-04-20T12:18:01.695Z,31.20
2018-04-20T12:19:01.741Z,31.30
2018-04-20T12:20:02.432Z,31.62
2018-04-20T12:21:02.059Z,32.02
2018-04-20T12:22:02.450Z,31.96
2018-04-20T12:24:02.056Z,32.29
2018-04-20T12:25:02.064Z,31.98
2018-04-20T12:26:02.242Z,31.82
2018-04-20T12:27:02.309Z,31.85
2018-04-20T12:28:02.257Z,31.40
2018-04-20T12:29:02.322Z,31.58
2018-04-20T12:30:02.365Z,31.68
2018-04-20T12:31:02.433Z,31.85
2018-04-20T12:32:02.595Z,32.05
2018-04-20T12:33:02.530Z,32.32
2018-04-20T12:34:02.611Z,32.54
2018-04-20T12:35:02.668Z,32.85
2018-04-20T12:36:02.733Z,32.95
2018-04-20T12:37:02.887Z,33.11
2018-04-20T12:38:02.826Z,33.13
2018-04-20T12:39:02.893Z,33.13
2018-04-20T12:40:02.958Z,32.51
2018-04-20T12:41:03.027Z,32.36
2018-04-20T12:42:03.174Z,32.61
2018-04-20T12:43:03.238Z,33.03
2018-04-20T12:44:03.449Z,33.37
2018-04-20T12:45:03.273Z,33.64
2018-04-20T12:46:03.297Z,33.89
2018-04-20T12:48:03.500Z,33.53
2018-04-20T12:49:03.607Z,33.76
2018-04-20T12:51:03.599Z,34.45
2018-04-20T12:52:03.681Z,34.41
2018-04-20T12:53:03.702Z,34.23
2018-04-20T12:54:03.964Z,33.51
2018-04-20T12:55:03.830Z,33.67
2018-04-20T12:56:03.885Z,33.98
2018-04-20T12:57:03.946Z,34.23
2018-04-20T12:58:04.005Z,34.20
2018-04-20T12:59:04.372Z,34.05
2018-04-20T13:00:04.345Z,33.57
2018-04-20T13:01:04.199Z,33.58
2018-04-20T13:02:04.247Z,33.67
2018-04-20T13:03:04.318Z,33.23
2018-04-20T13:04:04.389Z,33.34
2018-04-20T13:05:04.619Z,33.53
2018-04-20T13:06:04.494Z,33.85
2018-04-20T13:07:04.554Z,34.14
2018-04-20T13:08:04.596Z,34.09
2018-04-20T13:09:04.708Z,34.22
2018-04-20T13:10:05.377Z,34.11
2018-04-20T13:11:04.781Z,34.08
2018-04-20T13:12:04.867Z,33.89
2018-04-20T13:13:04.897Z,33.80
2018-04-20T13:14:04.963Z,33.90
2018-04-20T13:15:05.116Z,34.17
2018-04-20T13:16:05.176Z,34.38
2018-04-20T13:17:05.163Z,34.41
2018-04-20T13:18:05.188Z,34.41
2018-04-20T13:19:05.268Z,34.39
2018-04-20T13:20:05.315Z,34.54